createdAt,value
2018-06-22T00:00:07.070Z,2.33
2018-06-22T00:02:35.703Z,2.30
2018-06-22T00:05:04.351Z,2.30
2018-06-22T00:07:32.992Z,2.33
2018-06-22T00:10:01.651Z,1.90
2018-06-22T00:12:30.286Z,3.50
2018-06-22T00:14:58.905Z,1.80
2018-06-22T00:17:27.539Z,2.90
2018-06-22T00:19:56.134Z,1.77
2018-06-22T00:22:24.774Z,2.37
2018-06-22T00:24:53.539Z,2.00
2018-06-22T00:27:22.131Z,1.90
2018-06-22T00:29:50.763Z,1.87
2018-06-22T00:32:19.392Z,2.30
2018-06-22T00:34:48.018Z,2.03
2018-06-22T00:37:16.686Z,2.33
2018-06-22T00:39:45.319Z,2.17
2018-06-22T00:42:13.958Z,2.13
2018-06-22T00:44:42.607Z,1.90
2018-06-22T00:47:11.234Z,2.10
2018-06-22T00:49:39.896Z,2.10
2018-06-22T00:52:08.551Z,2.20
2018-06-22T00:54:37.167Z,2.30
2018-06-22T00:57:05.811Z,2.30
2018-06-22T00:59:34.466Z,2.60
2018-06-22T01:02:03.096Z,2.40
2018-06-22T01:04:31.881Z,3.17
2018-06-22T01:07:00.502Z,2.77
2018-06-22T01:09:29.152Z,3.00
2018-06-22T01:11:57.833Z,2.33
2018-06-22T01:14:26.515Z,3.60
2018-06-22T01:16:55.136Z,4.40
2018-06-22T01:19:23.824Z,3.13
2018-06-22T01:21:52.449Z,3.40
2018-06-22T01:24:21.109Z,2.40
2018-06-22T01:26:49.733Z,2.80
2018-06-22T01:29:23.675Z,2.53
2018-06-22T01:31:52.311Z,2.60
2018-06-22T01:34:20.986Z,3.13
2018-06-22T01:36:49.749Z,2.73
2018-06-22T01:39:18.387Z,3.13
2018-06-22T01:41:47.063Z,3.07
2018-06-22T01:44:15.688Z,3.60
2018-06-22T01:46:44.411Z,3.30
2018-06-22T01:49:13.047Z,2.80
2018-06-22T01:51:41.702Z,2.80
2018-06-22T01:54:10.397Z,3.67
2018-06-22T01:56:39.075Z,3.10
2018-06-22T01:59:07.698Z,3.13
2018-06-22T02:01:36.792Z,3.00
2018-06-22T02:04:05.419Z,2.90
2018-06-22T02:06:34.062Z,2.43
2018-06-22T02:09:02.720Z,3.47
2018-06-22T02:11:31.363Z,3.10
2018-06-22T02:14:00.005Z,2.27
2018-06-22T02:16:28.658Z,2.20
2018-06-22T02:18:57.282Z,2.47
2018-06-22T02:21:25.930Z,2.93
2018-06-22T02:23:54.554Z,2.37
2018-06-22T02:26:23.402Z,2.30
2018-06-22T02:28:52.065Z,2.27
2018-06-22T02:31:20.706Z,2.43
2018-06-22T02:33:49.579Z,2.00
2018-06-22T02:36:18.225Z,2.70
2018-06-22T02:38:46.834Z,2.00
2018-06-22T02:41:15.467Z,1.67
2018-06-22T02:43:44.147Z,2.00
2018-06-22T02:46:12.791Z,2.40
2018-06-22T02:48:41.423Z,1.80
2018-06-22T02:51:10.083Z,1.90
2018-06-22T02:53:38.748Z,2.03
2018-06-22T02:56:07.388Z,2.00
2018-06-22T02:58:36.051Z,2.07
2018-06-22T03:01:04.744Z,2.60
2018-06-22T03:03:33.427Z,2.50
2018-06-22T03:06:02.096Z,2.10
2018-06-22T03:08:30.735Z,2.10
2018-06-22T03:10:59.380Z,2.90
2018-06-22T03:13:28.060Z,2.43
2018-06-22T03:15:56.699Z,2.40
2018-06-22T03:18:25.355Z,2.67
2018-06-22T03:20:54.018Z,2.33
2018-06-22T03:23:22.646Z,1.90
2018-06-22T03:25:51.270Z,2.57
2018-06-22T03:28:19.918Z,2.00
2018-06-22T03:30:48.569Z,2.40
2018-06-22T03:33:17.216Z,1.87
2018-06-22T03:35:45.900Z,2.20
2018-06-22T03:38:14.538Z,2.33
2018-06-22T03:40:43.184Z,2.20
2018-06-22T03:43:11.852Z,1.73
2018-06-22T03:45:40.516Z,2.30
2018-06-22T03:48:09.230Z,2.20
2018-06-22T03:50:37.890Z,1.53
2018-06-22T03:53:06.504Z,1.53
2018-06-22T03:55:35.166Z,1.73
2018-06-22T03:58:03.841Z,1.80
2018-06-22T04:00:34.097Z,1.80
2018-06-22T04:03:03.594Z,2.03
2018-06-22T04:05:32.261Z,2.30
2018-06-22T04:08:00.947Z,4.70
2018-06-22T04:10:29.601Z,2.53
2018-06-22T04:12:58.235Z,1.97
2018-06-22T04:15:26.898Z,2.07
2018-06-22T04:17:55.839Z,2.43
2018-06-22T04:20:26.291Z,2.20
2018-06-22T04:22:55.079Z,2.10
2018-06-22T04:25:24.775Z,2.30
2018-06-22T04:27:53.711Z,2.77
2018-06-22T04:30:22.604Z,2.53
2018-06-22T04:32:51.961Z,2.33
2018-06-22T04:35:20.568Z,1.80
2018-06-22T04:37:49.250Z,2.30
2018-06-22T04:40:17.912Z,2.60
2018-06-22T04:42:46.527Z,3.23
2018-06-22T04:45:15.209Z,1.73
2018-06-22T04:47:43.941Z,2.60
2018-06-22T04:50:12.819Z,2.40
2018-06-22T04:52:41.474Z,2.67
2018-06-22T04:55:10.176Z,2.10
2018-06-22T04:57:38.793Z,2.10
2018-06-22T05:00:07.420Z,2.47
2018-06-22T05:02:36.132Z,2.93
2018-06-22T05:05:04.802Z,2.53
2018-06-22T05:07:33.438Z,3.37
2018-06-22T05:10:02.060Z,2.97
2018-06-22T05:12:30.817Z,2.90
2018-06-22T05:14:59.480Z,2.73
2018-06-22T05:17:28.268Z,3.00
2018-06-22T05:19:56.986Z,3.37
2018-06-22T05:22:25.631Z,3.40
2018-06-22T05:24:54.329Z,2.57
2018-06-22T05:27:23.066Z,2.77
2018-06-22T05:29:51.710Z,2.57
2018-06-22T05:32:20.391Z,2.70
2018-06-22T05:34:49.068Z,2.37
2018-06-22T05:37:17.709Z,2.10
2018-06-22T05:39:46.939Z,1.77
2018-06-22T05:42:15.595Z,2.03
2018-06-22T05:44:44.227Z,3.13
2018-06-22T05:47:12.972Z,1.97
2018-06-22T05:49:41.602Z,1.87
2018-06-22T05:52:10.268Z,1.97
2018-06-22T05:54:38.911Z,2.03
2018-06-22T05:57:07.695Z,2.57
2018-06-22T05:59:36.359Z,1.43
2018-06-22T06:02:05.065Z,1.70
2018-06-22T06:04:33.782Z,1.80
2018-06-22T06:07:02.415Z,1.77
2018-06-22T06:09:31.087Z,1.43
2018-06-22T06:11:59.744Z,1.93
2018-06-22T06:14:28.432Z,1.23
2018-06-22T06:16:57.094Z,2.00
2018-06-22T06:19:25.730Z,1.67
2018-06-22T06:21:54.358Z,1.37
2018-06-22T06:24:23.028Z,1.77
2018-06-22T06:26:51.682Z,2.00
2018-06-22T06:29:20.319Z,1.60
2018-06-22T06:31:49.003Z,1.77
2018-06-22T06:34:17.661Z,1.13
2018-06-22T06:36:48.794Z,2.13
2018-06-22T06:39:19.279Z,2.07
2018-06-22T06:41:51.486Z,1.57
2018-06-22T06:44:20.127Z,2.00
2018-06-22T06:46:48.823Z,1.43
2018-06-22T06:49:17.429Z,1.67
2018-06-22T06:51:46.084Z,1.97
2018-06-22T06:54:15.571Z,1.53
2018-06-22T06:56:44.539Z,1.37
2018-06-22T06:59:13.577Z,1.83
2018-06-22T07:01:45.803Z,1.80
2018-06-22T07:04:14.795Z,1.63
2018-06-22T07:06:43.480Z,2.23
2018-06-22T07:09:12.117Z,1.50
2018-06-22T07:11:41.029Z,2.00
2018-06-22T07:14:09.647Z,1.77
2018-06-22T07:16:38.316Z,2.87
2018-06-22T07:19:06.952Z,1.40
2018-06-22T07:21:35.600Z,1.77
2018-06-22T07:24:04.297Z,2.10
2018-06-22T07:26:32.959Z,2.10
2018-06-22T07:29:01.700Z,1.50
2018-06-22T07:31:30.351Z,1.40
2018-06-22T07:33:58.995Z,1.80
2018-06-22T07:36:27.690Z,1.70
2018-06-22T07:38:56.353Z,1.60
2018-06-22T07:41:24.990Z,1.40
2018-06-22T07:43:53.718Z,1.77
2018-06-22T07:46:22.370Z,1.37
2018-06-22T07:48:51.091Z,2.87
2018-06-22T07:51:19.703Z,1.93
2018-06-22T07:53:49.100Z,1.43
2018-06-22T07:56:17.727Z,2.30
2018-06-22T07:58:46.532Z,1.50
2018-06-22T08:01:15.216Z,2.27
2018-06-22T08:03:43.983Z,1.30
2018-06-22T08:06:12.667Z,1.33
2018-06-22T08:08:41.348Z,1.33
2018-06-22T08:11:10.053Z,1.63
2018-06-22T08:13:38.738Z,1.87
2018-06-22T08:16:07.545Z,1.47
2018-06-22T08:18:36.189Z,3.17
2018-06-22T08:21:04.879Z,1.50
2018-06-22T08:23:33.589Z,1.90
2018-06-22T08:26:02.205Z,1.70
2018-06-22T08:28:30.864Z,2.00
2018-06-22T08:30:59.521Z,1.50
2018-06-22T08:33:28.171Z,1.10
2018-06-22T08:35:58.615Z,1.17
2018-06-22T08:38:27.263Z,1.47
2018-06-22T08:40:56.037Z,1.10
2018-06-22T08:43:24.615Z,1.20
2018-06-22T08:45:54.323Z,1.53
2018-06-22T08:48:23.151Z,1.37
2018-06-22T08:50:51.853Z,1.17
2018-06-22T08:53:20.538Z,2.17
2018-06-22T08:55:49.773Z,1.53
2018-06-22T08:58:18.511Z,1.20
2018-06-22T09:00:47.144Z,1.40
2018-06-22T09:03:15.798Z,1.50
2018-06-22T09:05:44.468Z,1.17
2018-06-22T09:08:13.180Z,1.20
2018-06-22T09:10:41.794Z,1.40
2018-06-22T09:13:10.438Z,1.43
2018-06-22T09:15:39.062Z,1.57
2018-06-22T09:18:07.775Z,1.50
2018-06-22T09:20:36.414Z,1.40
2018-06-22T09:23:05.306Z,1.20
2018-06-22T09:25:34.991Z,1.37
2018-06-22T09:28:08.786Z,1.60
2018-06-22T09:30:37.377Z,1.57
2018-06-22T09:33:06.052Z,2.00
2018-06-22T09:35:34.786Z,2.00
2018-06-22T09:38:04.554Z,1.53
2018-06-22T09:40:33.232Z,1.87
2018-06-22T09:43:04.055Z,2.70
2018-06-22T09:45:32.845Z,1.47
2018-06-22T09:48:01.508Z,1.50
2018-06-22T09:50:30.159Z,1.93
2018-06-22T09:52:58.809Z,1.90
2018-06-22T09:55:27.569Z,1.83
2018-06-22T09:57:56.280Z,1.87
2018-06-22T10:00:25.180Z,3.60
2018-06-22T10:02:53.861Z,1.73
2018-06-22T10:05:22.609Z,1.83
2018-06-22T10:07:51.327Z,1.93
2018-06-22T10:10:20.038Z,1.73
2018-06-22T10:12:48.696Z,2.40
2018-06-22T10:15:17.387Z,2.20
2018-06-22T10:17:46.040Z,1.60
2018-06-22T10:20:14.899Z,1.30
2018-06-22T10:22:43.559Z,4.10
2018-06-22T10:25:12.309Z,3.00
2018-06-22T10:27:40.943Z,2.10
2018-06-22T10:30:09.571Z,2.33
2018-06-22T10:32:38.263Z,3.50
2018-06-22T10:35:06.894Z,2.27
2018-06-22T10:37:35.590Z,2.50
2018-06-22T10:40:04.675Z,2.73
2018-06-22T10:42:33.536Z,2.63
2018-06-22T10:45:02.251Z,4.90
2018-06-22T10:47:30.950Z,5.40
2018-06-22T10:49:59.635Z,5.37
2018-06-22T10:52:28.402Z,3.20
2018-06-22T10:54:57.018Z,4.37
2018-06-22T10:57:26.072Z,2.80
2018-06-22T10:59:54.773Z,2.40
2018-06-22T11:02:23.454Z,2.10
2018-06-22T11:04:52.683Z,1.60
2018-06-22T11:07:21.512Z,1.83
2018-06-22T11:09:51.102Z,2.00
2018-06-22T11:12:19.792Z,1.90
2018-06-22T11:14:49.135Z,2.17
2018-06-22T11:17:17.968Z,1.60
2018-06-22T11:19:46.523Z,1.53
2018-06-22T11:22:15.211Z,1.47
2018-06-22T11:24:43.866Z,1.30
2018-06-22T11:27:12.527Z,1.60
2018-06-22T11:29:41.214Z,1.83
2018-06-22T11:32:09.893Z,2.23
2018-06-22T11:34:38.986Z,2.00
2018-06-22T11:37:07.803Z,1.70
2018-06-22T11:39:36.922Z,1.40
2018-06-22T11:42:05.775Z,1.70
2018-06-22T11:44:34.426Z,1.50
2018-06-22T11:47:03.115Z,1.83
2018-06-22T11:49:31.783Z,1.67
2018-06-22T11:52:00.671Z,1.40
2018-06-22T11:54:29.346Z,1.73
2018-06-22T11:56:58.024Z,1.40
2018-06-22T11:59:26.649Z,1.47
2018-06-22T12:01:55.841Z,0.80
2018-06-22T12:04:24.488Z,1.30
2018-06-22T12:06:53.217Z,1.10
2018-06-22T12:09:21.890Z,1.10
2018-06-22T12:11:50.561Z,1.03
2018-06-22T12:14:19.259Z,0.87
2018-06-22T12:16:47.961Z,1.07
2018-06-22T12:19:16.724Z,1.27
2018-06-22T12:21:45.298Z,0.80
2018-06-22T12:24:14.020Z,1.40
2018-06-22T12:26:42.651Z,1.20
2018-06-22T12:29:11.310Z,1.20
2018-06-22T12:31:39.975Z,1.17
2018-06-22T12:34:08.764Z,1.43
2018-06-22T12:36:37.783Z,1.40
2018-06-22T12:39:09.105Z,1.53
2018-06-22T12:41:37.899Z,1.30
2018-06-22T12:44:06.586Z,1.40
2018-06-22T12:46:35.854Z,1.40
2018-06-22T12:49:04.574Z,0.90
2018-06-22T12:51:33.324Z,1.63
2018-06-22T12:54:02.636Z,0.90
2018-06-22T12:56:31.380Z,1.00
2018-06-22T12:59:00.032Z,1.20
2018-06-22T13:01:29.458Z,1.37
2018-06-22T13:03:58.383Z,1.00
2018-06-22T13:06:27.018Z,1.07
2018-06-22T13:08:55.907Z,1.30
2018-06-22T13:11:24.603Z,1.40
2018-06-22T13:13:53.301Z,2.47
2018-06-22T13:16:21.944Z,1.13
2018-06-22T13:18:50.648Z,1.37
2018-06-22T13:21:19.307Z,1.80
2018-06-22T13:23:47.994Z,1.40
2018-06-22T13:26:16.779Z,1.47
2018-06-22T13:28:45.597Z,1.50
2018-06-22T13:31:14.281Z,1.70
2018-06-22T13:33:43.064Z,2.10
2018-06-22T13:36:12.569Z,1.63
2018-06-22T13:38:41.204Z,2.13
2018-06-22T13:41:09.943Z,2.10
2018-06-22T13:43:38.643Z,2.30
2018-06-22T13:46:07.375Z,2.03
2018-06-22T13:48:36.071Z,1.87
2018-06-22T13:51:04.769Z,2.27
2018-06-22T13:53:33.564Z,2.80
2018-06-22T13:56:02.195Z,2.43
2018-06-22T13:58:30.945Z,2.43
2018-06-22T14:00:59.625Z,1.80
2018-06-22T14:03:28.374Z,2.40
2018-06-22T14:06:02.424Z,2.60
2018-06-22T14:08:31.127Z,2.50
2018-06-22T14:11:00.115Z,2.90
2018-06-22T14:13:28.773Z,2.53
2018-06-22T14:15:57.420Z,2.33
2018-06-22T14:18:26.114Z,2.13
2018-06-22T14:20:54.771Z,2.00
2018-06-22T14:23:23.477Z,1.90
2018-06-22T14:25:52.141Z,2.23
2018-06-22T14:28:20.830Z,2.53
2018-06-22T14:30:49.507Z,2.50
2018-06-22T14:33:18.157Z,2.50
2018-06-22T14:35:46.899Z,2.70
2018-06-22T14:38:15.697Z,2.50
2018-06-22T14:40:44.384Z,2.97
2018-06-22T14:43:13.122Z,2.50
2018-06-22T14:45:41.807Z,3.07
2018-06-22T14:48:10.447Z,3.83
2018-06-22T14:50:39.131Z,3.23
2018-06-22T14:53:12.039Z,2.67
2018-06-22T14:55:46.012Z,2.33
2018-06-22T14:58:20.095Z,2.33
2018-06-22T15:00:54.054Z,2.83
2018-06-22T15:03:28.027Z,3.00
2018-06-22T15:06:02.048Z,2.90
2018-06-22T15:08:30.692Z,3.10
2018-06-22T15:10:59.342Z,3.07
2018-06-22T15:13:27.995Z,3.10
2018-06-22T15:15:59.334Z,3.90
2018-06-22T15:18:27.987Z,3.60
2018-06-22T15:20:56.635Z,3.77
2018-06-22T15:23:25.322Z,2.63
2018-06-22T15:25:54.638Z,2.40
2018-06-22T15:28:23.663Z,2.13
2018-06-22T15:30:52.298Z,2.60
2018-06-22T15:33:26.326Z,2.73
2018-06-22T15:36:00.356Z,2.80
2018-06-22T15:38:34.438Z,2.70
2018-06-22T15:41:08.532Z,2.40
2018-06-22T15:43:42.472Z,4.67
2018-06-22T15:46:16.414Z,3.37
2018-06-22T15:48:50.470Z,2.83
2018-06-22T15:51:24.531Z,2.77
2018-06-22T15:53:58.617Z,4.10
2018-06-22T15:56:27.530Z,3.43
2018-06-22T15:58:56.236Z,2.63
2018-06-22T16:01:25.079Z,2.63
2018-06-22T16:03:57.031Z,3.20
2018-06-22T16:06:26.558Z,3.40
2018-06-22T16:08:55.283Z,2.63
2018-06-22T16:11:27.736Z,2.80
2018-06-22T16:14:02.051Z,2.53
2018-06-22T16:16:36.180Z,2.30
2018-06-22T16:19:10.365Z,2.70
2018-06-22T16:21:44.868Z,4.70
2018-06-22T16:24:18.838Z,1.87
2018-06-22T16:26:53.140Z,2.37
2018-06-22T16:29:21.789Z,2.80
2018-06-22T16:31:50.587Z,3.40
2018-06-22T16:34:19.226Z,3.40
2018-06-22T16:36:48.017Z,4.00
2018-06-22T16:39:16.680Z,3.30
2018-06-22T16:41:45.325Z,3.00
2018-06-22T16:44:14.177Z,2.47
2018-06-22T16:46:42.832Z,3.30
2018-06-22T16:49:11.504Z,2.63
2018-06-22T16:51:40.289Z,2.30
2018-06-22T16:54:08.875Z,2.00
2018-06-22T16:56:37.554Z,2.40
2018-06-22T16:59:06.204Z,2.77
2018-06-22T17:01:34.864Z,2.57
2018-06-22T17:04:03.524Z,3.10
2018-06-22T17:06:37.713Z,3.93
2018-06-22T17:09:13.336Z,2.80
2018-06-22T17:11:47.691Z,3.00
2018-06-22T17:14:21.601Z,2.70
2018-06-22T17:16:55.707Z,2.60
2018-06-22T17:19:24.343Z,2.83
2018-06-22T17:21:53.067Z,2.60
2018-06-22T17:24:21.788Z,2.37
2018-06-22T17:26:50.447Z,2.70
2018-06-22T17:29:19.106Z,2.70
2018-06-22T17:31:47.871Z,3.07
2018-06-22T17:34:16.479Z,3.97
2018-06-22T17:36:45.142Z,3.70
2018-06-22T17:39:13.831Z,2.93
2018-06-22T17:41:42.557Z,2.60
2018-06-22T17:44:11.260Z,2.27
2018-06-22T17:46:39.916Z,2.77
2018-06-22T17:49:08.703Z,2.57
2018-06-22T17:51:38.048Z,2.63
2018-06-22T17:54:06.651Z,2.27
2018-06-22T17:56:35.657Z,2.80
2018-06-22T17:59:09.625Z,2.17
2018-06-22T18:01:43.601Z,2.33
2018-06-22T18:04:22.461Z,2.97
2018-06-22T18:06:56.443Z,4.23
2018-06-22T18:09:30.507Z,3.13
2018-06-22T18:12:04.499Z,2.40
2018-06-22T18:14:33.165Z,2.80
2018-06-22T18:17:01.867Z,4.43
2018-06-22T18:19:30.568Z,2.70
2018-06-22T18:21:59.443Z,2.37
2018-06-22T18:24:28.263Z,2.43
2018-06-22T18:26:56.918Z,2.83
2018-06-22T18:29:25.611Z,2.90
2018-06-22T18:31:54.251Z,2.50
2018-06-22T18:34:23.114Z,2.70
2018-06-22T18:36:51.832Z,3.10
2018-06-22T18:39:20.474Z,2.83
2018-06-22T18:41:49.115Z,3.00
2018-06-22T18:44:18.116Z,3.30
2018-06-22T18:46:46.983Z,3.30
2018-06-22T18:49:15.669Z,2.83
2018-06-22T18:51:44.344Z,2.57
2018-06-22T18:54:18.491Z,2.73
2018-06-22T18:56:53.558Z,2.87
2018-06-22T18:59:47.595Z,3.50
2018-06-22T19:02:21.786Z,3.03
2018-06-22T19:04:50.644Z,3.17
2018-06-22T19:07:19.238Z,3.20
2018-06-22T19:09:48.001Z,3.20
2018-06-22T19:12:16.763Z,2.97
2018-06-22T19:14:45.712Z,2.70
2018-06-22T19:17:14.448Z,3.73
2018-06-22T19:19:43.184Z,5.40
2018-06-22T19:22:11.847Z,4.73
2018-06-22T19:24:40.499Z,6.30
2018-06-22T19:27:09.177Z,3.93
2018-06-22T19:29:39.090Z,4.00
2018-06-22T19:32:07.932Z,4.10
2018-06-22T19:34:42.096Z,3.50
2018-06-22T19:37:10.815Z,3.53
2018-06-22T19:39:40.849Z,3.00
2018-06-22T19:42:09.483Z,3.30
2018-06-22T19:45:44.167Z,3.10
2018-06-22T19:48:18.308Z,2.87
2018-06-22T19:50:52.000Z,2.77
2018-06-22T19:53:26.117Z,2.60
2018-06-22T19:55:54.763Z,2.53
2018-06-22T19:58:23.478Z,2.33
2018-06-22T20:00:53.075Z,1.80
2018-06-22T20:03:21.756Z,3.17
2018-06-22T20:05:50.427Z,2.83
2018-06-22T20:08:19.142Z,2.53
2018-06-22T20:10:47.912Z,2.20
2018-06-22T20:13:16.507Z,2.37
2018-06-22T20:15:45.212Z,2.67
2018-06-22T20:18:13.949Z,2.30
2018-06-22T20:20:42.706Z,2.53
2018-06-22T20:23:11.492Z,2.50
2018-06-22T20:25:45.934Z,2.53
2018-06-22T20:28:15.359Z,2.93
2018-06-22T20:30:44.855Z,2.10
2018-06-22T20:33:13.555Z,2.50
2018-06-22T20:35:47.612Z,2.00
2018-06-22T20:40:24.068Z,2.20
2018-06-22T20:42:59.730Z,2.10
2018-06-22T20:45:33.799Z,2.40
2018-06-22T20:48:07.832Z,2.50
2018-06-22T20:50:38.206Z,4.23
2018-06-22T20:53:07.616Z,2.50
2018-06-22T20:55:36.697Z,2.53
2018-06-22T20:58:05.487Z,2.73
2018-06-22T21:00:35.100Z,2.77
2018-06-22T21:03:03.880Z,2.87
2018-06-22T21:05:32.514Z,2.60
2018-06-22T21:08:01.362Z,3.00
2018-06-22T21:10:30.028Z,4.90
2018-06-22T21:12:58.757Z,5.77
2018-06-22T21:15:27.350Z,7.83
2018-06-22T21:17:56.031Z,5.43
2018-06-22T21:20:24.710Z,5.20
2018-06-22T21:22:53.348Z,5.17
2018-06-22T21:25:22.080Z,4.90
2018-06-22T21:27:56.143Z,4.40
2018-06-22T21:30:30.338Z,3.90
2018-06-22T21:33:08.081Z,3.50
2018-06-22T21:35:42.119Z,4.03
2018-06-22T21:38:16.045Z,4.20
2018-06-22T21:40:44.769Z,3.80
2018-06-22T21:43:13.415Z,3.40
2018-06-22T21:45:42.080Z,3.30
2018-06-22T21:48:10.779Z,3.33
2018-06-22T21:50:39.430Z,4.40
2018-06-22T21:53:08.238Z,5.67
2018-06-22T21:55:36.975Z,4.20
2018-06-22T21:58:05.644Z,6.07
2018-06-22T22:00:34.599Z,7.43
2018-06-22T22:03:05.227Z,10.90
2018-06-22T22:05:33.936Z,9.40
2018-06-22T22:08:02.563Z,11.40
2018-06-22T22:10:36.759Z,8.60
2018-06-22T22:13:05.744Z,8.80
2018-06-22T22:15:34.405Z,7.33
2018-06-22T22:18:03.059Z,10.13
2018-06-22T22:20:31.698Z,5.80
2018-06-22T22:23:01.295Z,9.00
2018-06-22T22:25:30.042Z,6.70
2018-06-22T22:27:58.683Z,4.13
2018-06-22T22:30:27.358Z,5.20
2018-06-22T22:32:55.990Z,5.47
2018-06-22T22:35:24.651Z,6.70
2018-06-22T22:37:53.275Z,5.67
2018-06-22T22:40:21.947Z,6.27
2018-06-22T22:42:50.868Z,6.03
2018-06-22T22:45:19.579Z,6.67
2018-06-22T22:47:48.735Z,4.57
2018-06-22T22:50:17.388Z,5.33
2018-06-22T22:52:46.041Z,4.80
2018-06-22T22:55:14.698Z,4.30
2018-06-22T22:57:43.355Z,5.27
2018-06-22T23:00:12.044Z,4.83
2018-06-22T23:02:40.679Z,4.73
2018-06-22T23:05:09.291Z,4.23
2018-06-22T23:07:38.084Z,4.97
2018-06-22T23:10:06.966Z,4.83
2018-06-22T23:12:35.630Z,5.20
2018-06-22T23:15:04.852Z,4.90
2018-06-22T23:17:33.484Z,4.13
2018-06-22T23:20:02.289Z,4.30
2018-06-22T23:22:42.363Z,4.20
2018-06-22T23:25:11.012Z,5.00
2018-06-22T23:27:39.747Z,4.90
2018-06-22T23:30:08.759Z,4.33
2018-06-22T23:32:37.493Z,4.60
2018-06-22T23:35:06.174Z,4.33
2018-06-22T23:37:34.891Z,4.80
2018-06-22T23:40:03.511Z,5.37
2018-06-22T23:42:32.193Z,4.50
2018-06-22T23:45:00.845Z,5.67
2018-06-22T23:47:29.495Z,4.27
2018-06-22T23:49:58.293Z,4.00
2018-06-22T23:52:26.909Z,3.90
2018-06-22T23:54:55.548Z,5.30
2018-06-22T23:57:24.234Z,4.40
2018-06-22T23:59:52.897Z,6.17
